Sch-135 Galibier — PBIB — position and weather

sailwx.info

Track history (hours):
 
Tides and Currents Weather Stations Pressure Air Temp Water Temp Dewpoint Dewpoint Depression Visibility Wind Speed Wind Dir Waves Ship Positions

Sch-135 Galibier

Last reported at 2017-Feb-16 22:33 UTC. Time now 2017-Feb-20 06:23 UTC.
Position N 50°43' E 001°35'.

Length 35 m; draft 4.2 m.

Type: Fishing. MMSI: 244630637.

Date/timePositionNaut miles runAvg speedWind from/ knotsBaromVisibWave heightAir tempDewpointWater temp
2017-Feb-16 22:33N 50°43' E 001°35'  
2017-Feb-13 17:32N 50°12' W 000°15'1 1.1
2017-Feb-13 16:33N 50°12' W 000°14'2 1.8
2017-Feb-13 15:29N 50°12' W 000°11'10 9.2
2017-Feb-13 14:25N 50°14' E 000°04'3 2.8
2017-Feb-13 13:18N 50°14' E 000°09'2 2.1
2017-Feb-13 12:32N 50°14' E 000°06'3 2.7
2017-Feb-13 11:32N 50°11' E 000°06'6 5.9
2017-Feb-13 10:33N 50°06' E 000°01'1 1.0
2017-Feb-13 09:33N 50°05' W 000°00'1 1.5
2017-Feb-13 08:33N 50°05' W 000°02'4 3.4
2017-Feb-13 07:27N 50°06' E 000°03'5 5.0
2017-Feb-13 06:25N 50°08' E 000°11'  
2017-Feb-08 20:33N 50°00' E 000°13'10 9.9
2017-Feb-08 19:33N 49°54' E 000°01'9 8.9
2017-Feb-08 18:33N 49°52' W 000°12'4 4.4
2017-Feb-08 17:33N 49°52' W 000°19'1 0.6
2017-Feb-08 16:33N 49°51' W 000°19'1 0.7
2017-Feb-08 15:34N 49°52' W 000°19'2 2.4
2017-Feb-08 14:33N 49°52' W 000°23'1 0.8
2017-Feb-08 13:33N 49°51' W 000°23'2 1.6
2017-Feb-08 12:34N 49°51' W 000°21'1 0.9
2017-Feb-08 11:33N 49°51' W 000°20'2 1.8
2017-Feb-08 10:33N 49°52' W 000°18'1 0.8
2017-Feb-08 09:33N 49°52' W 000°17'1 0.5
2017-Feb-08 08:33N 49°52' W 000°18'1 0.7
2017-Feb-08 07:33N 49°52' W 000°19'2 1.7
2017-Feb-08 06:33N 49°51' W 000°21'4 4.5
2017-Feb-08 05:33N 49°48' W 000°27'1 0.7
2017-Feb-08 04:33N 49°49' W 000°27'1 1.0
2017-Feb-08 03:33N 49°48' W 000°27'1 0.6
2017-Feb-08 02:33N 49°48' W 000°27'1 1.4
2017-Feb-08 01:33N 49°49' W 000°25'4 4.0
2017-Feb-08 00:33N 49°49' W 000°19'5 5.1
2017-Feb-07 23:33N 49°49' W 000°11'5 5.2
2017-Feb-07 22:33N 49°49' W 000°03'7 7.2
2017-Feb-07 21:33N 49°50' E 000°08'5 1.3
2017-Feb-07 18:03N 49°47' E 000°14'611.3
2017-Feb-07 17:33N 49°50' E 000°06'1110.6
2017-Feb-07 16:33N 49°53' W 000°09'1111.2
2017-Feb-07 15:33N 49°58' W 000°25'4 4.0
2017-Feb-07 14:32N 49°60' W 000°30'0 0.5
2017-Feb-07 13:33N 49°59' W 000°30'1 0.8
2017-Feb-07 12:34N 49°59' W 000°31'3 2.8
2017-Feb-07 11:33N 50°02' W 000°30'1 0.8
2017-Feb-07 10:33N 50°02' W 000°29'2 2.1
2017-Feb-07 09:32N 50°01' W 000°26'8 7.9
2017-Feb-07 08:31N 50°02' W 000°39'2 0.9
2017-Feb-07 06:33N 50°01' W 000°41'3 0.6
2017-Feb-07 01:31N 49°59' W 000°44'  
Track history (hours):
 
Tides and Currents Weather Stations Pressure Air Temp Water Temp Dewpoint Dewpoint Depression Visibility Wind Speed Wind Dir Waves Ship Positions

Sch-135 Galibier

Last reported at 2017-Feb-16 22:33 UTC. Time now 2017-Feb-20 06:23 UTC.
Position N 50°43' E 001°35'.

Length 35 m; draft 4.2 m.

Type: Fishing. MMSI: 244630637.

Date/timePositionNaut miles runAvg speedWind from/ knotsBaromVisibWave heightAir tempDewpointWater temp
2017-Feb-16 22:33N 50°43' E 001°35'  
2017-Feb-13 17:32N 50°12' W 000°15'1 1.1
2017-Feb-13 16:33N 50°12' W 000°14'2 1.8
2017-Feb-13 15:29N 50°12' W 000°11'10 9.2
2017-Feb-13 14:25N 50°14' E 000°04'3 2.8
2017-Feb-13 13:18N 50°14' E 000°09'2 2.1
2017-Feb-13 12:32N 50°14' E 000°06'3 2.7
2017-Feb-13 11:32N 50°11' E 000°06'6 5.9
2017-Feb-13 10:33N 50°06' E 000°01'1 1.0
2017-Feb-13 09:33N 50°05' W 000°00'1 1.5
2017-Feb-13 08:33N 50°05' W 000°02'4 3.4
2017-Feb-13 07:27N 50°06' E 000°03'5 5.0
2017-Feb-13 06:25N 50°08' E 000°11'  
2017-Feb-08 20:33N 50°00' E 000°13'10 9.9
2017-Feb-08 19:33N 49°54' E 000°01'9 8.9
2017-Feb-08 18:33N 49°52' W 000°12'4 4.4
2017-Feb-08 17:33N 49°52' W 000°19'1 0.6
2017-Feb-08 16:33N 49°51' W 000°19'1 0.7
2017-Feb-08 15:34N 49°52' W 000°19'2 2.4
2017-Feb-08 14:33N 49°52' W 000°23'1 0.8
2017-Feb-08 13:33N 49°51' W 000°23'2 1.6
2017-Feb-08 12:34N 49°51' W 000°21'1 0.9
2017-Feb-08 11:33N 49°51' W 000°20'2 1.8
2017-Feb-08 10:33N 49°52' W 000°18'1 0.8
2017-Feb-08 09:33N 49°52' W 000°17'1 0.5
2017-Feb-08 08:33N 49°52' W 000°18'1 0.7
2017-Feb-08 07:33N 49°52' W 000°19'2 1.7
2017-Feb-08 06:33N 49°51' W 000°21'4 4.5
2017-Feb-08 05:33N 49°48' W 000°27'1 0.7
2017-Feb-08 04:33N 49°49' W 000°27'1 1.0
2017-Feb-08 03:33N 49°48' W 000°27'1 0.6
2017-Feb-08 02:33N 49°48' W 000°27'1 1.4
2017-Feb-08 01:33N 49°49' W 000°25'4 4.0
2017-Feb-08 00:33N 49°49' W 000°19'5 5.1
2017-Feb-07 23:33N 49°49' W 000°11'5 5.2
2017-Feb-07 22:33N 49°49' W 000°03'7 7.2
2017-Feb-07 21:33N 49°50' E 000°08'5 1.3
2017-Feb-07 18:03N 49°47' E 000°14'611.3
2017-Feb-07 17:33N 49°50' E 000°06'1110.6
2017-Feb-07 16:33N 49°53' W 000°09'1111.2
2017-Feb-07 15:33N 49°58' W 000°25'4 4.0
2017-Feb-07 14:32N 49°60' W 000°30'0 0.5
2017-Feb-07 13:33N 49°59' W 000°30'1 0.8
2017-Feb-07 12:34N 49°59' W 000°31'3 2.8
2017-Feb-07 11:33N 50°02' W 000°30'1 0.8
2017-Feb-07 10:33N 50°02' W 000°29'2 2.1
2017-Feb-07 09:32N 50°01' W 000°26'8 7.9
2017-Feb-07 08:31N 50°02' W 000°39'2 0.9
2017-Feb-07 06:33N 50°01' W 000°41'3 0.6
2017-Feb-07 01:31N 49°59' W 000°44'  

Dump ship's entire track history